sensor_id;sensor_type;location;lat;lon;timestamp;pressure;altitude;pressure_sealevel;temperature;humidity
68822;BME280;55834;50.870;4.606;2023-02-14T00:01:31;102729.16;;;3.52;54.68
68822;BME280;55834;50.870;4.606;2023-02-14T00:03:56;102730.88;;;3.52;54.53
68822;BME280;55834;50.870;4.606;2023-02-14T00:06:26;102731.16;;;3.59;55.02
68822;BME280;55834;50.870;4.606;2023-02-14T00:08:51;102733.50;;;3.52;54.22
68822;BME280;55834;50.870;4.606;2023-02-14T00:11:19;102730.88;;;3.52;55.07
68822;BME280;55834;50.870;4.606;2023-02-14T00:13:45;102726.66;;;3.30;55.13
68822;BME280;55834;50.870;4.606;2023-02-14T00:16:29;102727.69;;;3.09;55.55
68822;BME280;55834;50.870;4.606;2023-02-14T00:18:55;102724.81;;;3.26;56.62
68822;BME280;55834;50.870;4.606;2023-02-14T00:21:35;102723.66;;;3.43;55.56
68822;BME280;55834;50.870;4.606;2023-02-14T00:24:02;102713.91;;;3.39;55.36
68822;BME280;55834;50.870;4.606;2023-02-14T00:26:27;102714.50;;;3.30;56.38
68822;BME280;55834;50.870;4.606;2023-02-14T00:28:53;102715.94;;;3.21;56.95
68822;BME280;55834;50.870;4.606;2023-02-14T00:31:18;102715.63;;;3.37;57.12
68822;BME280;55834;50.870;4.606;2023-02-14T00:33:43;102719.50;;;3.50;56.00
68822;BME280;55834;50.870;4.606;2023-02-14T00:36:09;102723.19;;;3.56;55.29
68822;BME280;55834;50.870;4.606;2023-02-14T00:38:35;102710.03;;;3.53;54.30
68822;BME280;55834;50.870;4.606;2023-02-14T00:41:01;102712.75;;;3.56;55.22
68822;BME280;55834;50.870;4.606;2023-02-14T00:43:27;102715.22;;;3.52;53.29
68822;BME280;55834;50.870;4.606;2023-02-14T00:45:52;102716.31;;;3.33;54.07
68822;BME280;55834;50.870;4.606;2023-02-14T00:48:17;102709.50;;;3.36;54.80
68822;BME280;55834;50.870;4.606;2023-02-14T00:50:43;102710.13;;;3.29;54.61
68822;BME280;55834;50.870;4.606;2023-02-14T00:53:10;102713.91;;;3.39;55.45
68822;BME280;55834;50.870;4.606;2023-02-14T00:55:36;102710.53;;;3.42;54.26
68822;BME280;55834;50.870;4.606;2023-02-14T00:58:01;102717.25;;;3.33;53.89
68822;BME280;55834;50.870;4.606;2023-02-14T01:00:26;102712.94;;;3.35;55.32
68822;BME280;55834;50.870;4.606;2023-02-14T01:02:52;102719.31;;;3.44;54.78
68822;BME280;55834;50.870;4.606;2023-02-14T01:05:17;102714.19;;;3.47;54.49
68822;BME280;55834;50.870;4.606;2023-02-14T01:07:42;102716.84;;;3.48;53.85
68822;BME280;55834;50.870;4.606;2023-02-14T01:10:08;102717.63;;;3.46;53.66
68822;BME280;55834;50.870;4.606;2023-02-14T01:12:33;102715.81;;;3.43;52.89
68822;BME280;55834;50.870;4.606;2023-02-14T01:14:59;102710.53;;;3.42;52.93
68822;BME280;55834;50.870;4.606;2023-02-14T01:17:24;102711.78;;;3.27;52.79
68822;BME280;55834;50.870;4.606;2023-02-14T01:19:52;102716.00;;;3.22;53.09
68822;BME280;55834;50.870;4.606;2023-02-14T01:22:18;102715.03;;;3.20;53.07
68822;BME280;55834;50.870;4.606;2023-02-14T01:24:43;102723.75;;;3.21;53.10
68822;BME280;55834;50.870;4.606;2023-02-14T01:27:09;102713.00;;;3.13;52.41
68822;BME280;55834;50.870;4.606;2023-02-14T01:29:34;102722.34;;;2.81;51.72
68822;BME280;55834;50.870;4.606;2023-02-14T01:31:59;102722.53;;;2.61;53.46
68822;BME280;55834;50.870;4.606;2023-02-14T01:34:25;102708.31;;;2.77;55.05
68822;BME280;55834;50.870;4.606;2023-02-14T01:36:50;102715.38;;;2.81;53.83
68822;BME280;55834;50.870;4.606;2023-02-14T01:39:15;102724.13;;;2.82;52.64
68822;BME280;55834;50.870;4.606;2023-02-14T01:41:43;102712.84;;;2.83;52.97
68822;BME280;55834;50.870;4.606;2023-02-14T01:46:37;102714.72;;;2.87;52.83
68822;BME280;55834;50.870;4.606;2023-02-14T01:49:27;102713.69;;;2.82;52.04
68822;BME280;55834;50.870;4.606;2023-02-14T01:52:07;102710.81;;;2.74;52.12
68822;BME280;55834;50.870;4.606;2023-02-14T01:54:34;102709.19;;;2.78;53.25
68822;BME280;55834;50.870;4.606;2023-02-14T01:57:05;102708.25;;;2.76;51.57
68822;BME280;55834;50.870;4.606;2023-02-14T01:59:36;102701.88;;;2.67;50.50
68822;BME280;55834;50.870;4.606;2023-02-14T02:02:04;102704.16;;;2.58;50.40
68822;BME280;55834;50.870;4.606;2023-02-14T02:04:36;102702.22;;;2.53;50.52
68822;BME280;55834;50.870;4.606;2023-02-14T02:07:05;102699.44;;;2.48;51.24
68822;BME280;55834;50.870;4.606;2023-02-14T02:09:39;102700.28;;;2.47;51.45
68822;BME280;55834;50.870;4.606;2023-02-14T02:12:07;102694.25;;;2.25;50.39
68822;BME280;55834;50.870;4.606;2023-02-14T02:14:33;102694.47;;;2.08;52.10
68822;BME280;55834;50.870;4.606;2023-02-14T02:25:46;102684.56;;;2.21;52.40
68822;BME280;55834;50.870;4.606;2023-02-14T02:31:12;102680.53;;;2.30;52.32
68822;BME280;55834;50.870;4.606;2023-02-14T02:47:07;102676.53;;;2.15;50.89
68822;BME280;55834;50.870;4.606;2023-02-14T02:49:55;102674.59;;;2.11;51.54
68822;BME280;55834;50.870;4.606;2023-02-14T02:53:13;102674.22;;;2.00;51.41
68822;BME280;55834;50.870;4.606;2023-02-14T02:55:44;102677.75;;;2.02;52.27
68822;BME280;55834;50.870;4.606;2023-02-14T02:58:43;102678.41;;;1.97;52.69
68822;BME280;55834;50.870;4.606;2023-02-14T03:01:13;102678.63;;;2.03;51.79
68822;BME280;55834;50.870;4.606;2023-02-14T03:03:44;102678.63;;;2.03;51.79
68822;BME280;55834;50.870;4.606;2023-02-14T03:06:30;102683.63;;;1.97;50.63
68822;BME280;55834;50.870;4.606;2023-02-14T03:08:56;102685.31;;;1.95;51.38
68822;BME280;55834;50.870;4.606;2023-02-14T03:11:22;102676.22;;;1.85;51.06
68822;BME280;55834;50.870;4.606;2023-02-14T03:14:19;102680.44;;;1.81;52.72
68822;BME280;55834;50.870;4.606;2023-02-14T03:17:06;102683.81;;;1.79;51.15
68822;BME280;55834;50.870;4.606;2023-02-14T03:19:55;102678.78;;;1.84;52.77
68822;BME280;55834;50.870;4.606;2023-02-14T03:31:19;102673.69;;;1.87;51.82
68822;BME280;55834;50.870;4.606;2023-02-14T03:33:52;102678.78;;;1.84;51.26
68822;BME280;55834;50.870;4.606;2023-02-14T03:36:29;102680.63;;;1.86;51.93
68822;BME280;55834;50.870;4.606;2023-02-14T03:39:04;102670.00;;;1.81;51.12
68822;BME280;55834;50.870;4.606;2023-02-14T03:41:36;102675.22;;;1.81;51.29
68822;BME280;55834;50.870;4.606;2023-02-14T03:44:05;102678.47;;;1.76;51.43
68822;BME280;55834;50.870;4.606;2023-02-14T03:47:05;102681.03;;;1.74;51.78
68822;BME280;55834;50.870;4.606;2023-02-14T03:49:35;102684.16;;;1.66;51.40
68822;BME280;55834;50.870;4.606;2023-02-14T03:52:02;102684.97;;;1.65;51.97
68822;BME280;55834;50.870;4.606;2023-02-14T03:54:29;102690.03;;;1.60;51.93
68822;BME280;55834;50.870;4.606;2023-02-14T03:57:21;102687.28;;;1.57;51.73
68822;BME280;55834;50.870;4.606;2023-02-14T03:59:48;102679.53;;;1.58;51.66
68822;BME280;55834;50.870;4.606;2023-02-14T04:02:37;102681.41;;;1.63;51.47
68822;BME280;55834;50.870;4.606;2023-02-14T04:05:11;102684.94;;;1.63;51.38
68822;BME280;55834;50.870;4.606;2023-02-14T04:07:49;102680.16;;;1.53;50.98
68822;BME280;55834;50.870;4.606;2023-02-14T04:10:16;102684.53;;;1.54;52.34
68822;BME280;55834;50.870;4.606;2023-02-14T04:12:42;102677.69;;;1.56;51.97
68822;BME280;55834;50.870;4.606;2023-02-14T04:15:09;102679.34;;;1.54;51.38
68822;BME280;55834;50.870;4.606;2023-02-14T04:17:35;102678.44;;;1.53;51.43
68822;BME280;55834;50.870;4.606;2023-02-14T04:20:19;102678.41;;;1.52;51.31
68822;BME280;55834;50.870;4.606;2023-02-14T04:22:44;102678.44;;;1.53;51.71
68822;BME280;55834;50.870;4.606;2023-02-14T04:25:13;102674.28;;;1.57;51.50
68822;BME280;55834;50.870;4.606;2023-02-14T04:27:39;102673.19;;;1.52;50.71
68822;BME280;55834;50.870;4.606;2023-02-14T04:30:05;102675.97;;;1.34;51.45
68822;BME280;55834;50.870;4.606;2023-02-14T04:32:30;102672.56;;;1.36;52.75
68822;BME280;55834;50.870;4.606;2023-02-14T04:34:55;102676.88;;;1.36;52.74
68822;BME280;55834;50.870;4.606;2023-02-14T04:37:21;102677.97;;;1.41;52.95
68822;BME280;55834;50.870;4.606;2023-02-14T04:39:46;102676.44;;;1.46;52.69
68822;BME280;55834;50.870;4.606;2023-02-14T04:42:12;102679.16;;;1.49;52.80
68822;BME280;55834;50.870;4.606;2023-02-14T04:44:38;102683.38;;;1.46;52.43
68822;BME280;55834;50.870;4.606;2023-02-14T04:47:04;102679.09;;;1.48;52.43
68822;BME280;55834;50.870;4.606;2023-02-14T04:49:29;102682.66;;;1.50;52.26
68822;BME280;55834;50.870;4.606;2023-02-14T04:51:55;102677.44;;;1.50;52.06
68822;BME280;55834;50.870;4.606;2023-02-14T04:54:21;102674.00;;;1.51;51.86
68822;BME280;55834;50.870;4.606;2023-02-14T04:56:46;102682.66;;;1.50;51.83
68822;BME280;55834;50.870;4.606;2023-02-14T04:59:12;102672.19;;;1.48;51.89
68822;BME280;55834;50.870;4.606;2023-02-14T05:01:38;102680.69;;;1.44;51.40
68822;BME280;55834;50.870;4.606;2023-02-14T05:04:04;102667.09;;;1.30;51.12
68822;BME280;55834;50.870;4.606;2023-02-14T05:06:29;102666.94;;;1.26;51.56
68822;BME280;55834;50.870;4.606;2023-02-14T05:08:55;102674.75;;;1.26;51.86
68822;BME280;55834;50.870;4.606;2023-02-14T05:11:21;102672.41;;;1.32;52.26
68822;BME280;55834;50.870;4.606;2023-02-14T05:13:47;102674.25;;;1.34;52.45
68822;BME280;55834;50.870;4.606;2023-02-14T05:16:12;102669.28;;;1.41;52.10
68822;BME280;55834;50.870;4.606;2023-02-14T05:18:37;102670.91;;;1.39;52.27
68822;BME280;55834;50.870;4.606;2023-02-14T05:21:03;102660.47;;;1.37;51.59
68822;BME280;55834;50.870;4.606;2023-02-14T05:23:28;102666.47;;;1.36;51.72
68822;BME280;55834;50.870;4.606;2023-02-14T05:25:54;102671.56;;;1.33;51.36
68822;BME280;55834;50.870;4.606;2023-02-14T05:28:19;102663.75;;;1.33;51.35
68822;BME280;55834;50.870;4.606;2023-02-14T05:30:45;102663.63;;;1.30;51.29
68822;BME280;55834;50.870;4.606;2023-02-14T05:33:11;102655.78;;;1.28;51.69
68822;BME280;55834;50.870;4.606;2023-02-14T05:35:36;102664.38;;;1.27;51.21
68822;BME280;55834;50.870;4.606;2023-02-14T05:38:01;102662.63;;;1.26;51.78
68822;BME280;55834;50.870;4.606;2023-02-14T05:40:27;102663.59;;;1.28;51.91
68822;BME280;55834;50.870;4.606;2023-02-14T05:42:53;102664.38;;;1.27;51.51
68822;BME280;55834;50.870;4.606;2023-02-14T05:45:19;102665.97;;;1.24;51.03
68822;BME280;55834;50.870;4.606;2023-02-14T05:47:46;102664.31;;;1.05;50.21
68822;BME280;55834;50.870;4.606;2023-02-14T05:50:12;102668.75;;;1.07;52.11
68822;BME280;55834;50.870;4.606;2023-02-14T05:52:37;102659.41;;;1.11;51.66
68822;BME280;55834;50.870;4.606;2023-02-14T05:55:03;102668.00;;;1.10;51.53
68822;BME280;55834;50.870;4.606;2023-02-14T05:57:29;102669.59;;;1.06;51.48
68822;BME280;55834;50.870;4.606;2023-02-14T05:59:54;102666.75;;;1.00;51.51
68822;BME280;55834;50.870;4.606;2023-02-14T06:02:20;102667.59;;;0.99;51.77
68822;BME280;55834;50.870;4.606;2023-02-14T06:04:45;102672.72;;;0.98;51.43
68822;BME280;55834;50.870;4.606;2023-02-14T06:07:10;102672.72;;;0.98;51.58
68822;BME280;55834;50.870;4.606;2023-02-14T06:09:36;102670.31;;;1.02;51.65
68822;BME280;55834;50.870;4.606;2023-02-14T06:12:01;102664.28;;;1.03;51.83
68822;BME280;55834;50.870;4.606;2023-02-14T06:14:26;102663.38;;;1.03;51.84
68822;BME280;55834;50.870;4.606;2023-02-14T06:16:51;102657.31;;;1.02;51.39
68822;BME280;55834;50.870;4.606;2023-02-14T06:19:17;102667.75;;;1.04;51.85
68822;BME280;55834;50.870;4.606;2023-02-14T06:21:42;102661.59;;;1.02;51.64
68822;BME280;55834;50.870;4.606;2023-02-14T06:24:08;102665.59;;;0.94;51.05
68822;BME280;55834;50.870;4.606;2023-02-14T06:26:34;102657.94;;;0.97;52.20
68822;BME280;55834;50.870;4.606;2023-02-14T06:29:02;102668.50;;;1.01;52.23
68822;BME280;55834;50.870;4.606;2023-02-14T06:31:28;102658.06;;;1.00;51.83
68822;BME280;55834;50.870;4.606;2023-02-14T06:33:54;102671.19;;;1.03;52.09
68822;BME280;55834;50.870;4.606;2023-02-14T06:36:20;102665.22;;;1.05;52.29
68822;BME280;55834;50.870;4.606;2023-02-14T06:38:46;102665.91;;;1.01;51.76
68822;BME280;55834;50.870;4.606;2023-02-14T06:41:15;102670.09;;;0.98;52.00
68822;BME280;55834;50.870;4.606;2023-02-14T06:43:44;102671.06;;;1.00;52.03
68822;BME280;55834;50.870;4.606;2023-02-14T06:46:10;102677.03;;;0.97;52.00
68822;BME280;55834;50.870;4.606;2023-02-14T06:48:36;102675.38;;;0.99;52.10
68822;BME280;55834;50.870;4.606;2023-02-14T06:51:01;102678.63;;;0.94;52.07
68822;BME280;55834;50.870;4.606;2023-02-14T06:53:27;102678.63;;;0.94;52.50
68822;BME280;55834;50.870;4.606;2023-02-14T06:55:52;102681.25;;;0.95;52.58
68822;BME280;55834;50.870;4.606;2023-02-14T06:58:18;102684.81;;;0.97;52.84
68822;BME280;55834;50.870;4.606;2023-02-14T07:00:43;102682.41;;;1.02;52.31
68822;BME280;55834;50.870;4.606;2023-02-14T07:03:08;102683.81;;;0.94;52.08
68822;BME280;55834;50.870;4.606;2023-02-14T07:05:34;102689.78;;;0.91;52.51
68822;BME280;55834;50.870;4.606;2023-02-14T07:08:00;102684.50;;;0.89;52.41
68822;BME280;55834;50.870;4.606;2023-02-14T07:10:25;102681.13;;;0.92;52.73
68822;BME280;55834;50.870;4.606;2023-02-14T07:12:51;102684.50;;;0.89;51.83
68822;BME280;55834;50.870;4.606;2023-02-14T07:15:16;102682.84;;;0.91;52.92
68822;BME280;55834;50.870;4.606;2023-02-14T07:17:42;102680.59;;;0.99;53.14
68822;BME280;55834;50.870;4.606;2023-02-14T07:20:08;102683.13;;;0.78;52.19
68822;BME280;55834;50.870;4.606;2023-02-14T07:22:34;102679.84;;;0.63;53.67
68822;BME280;55834;50.870;4.606;2023-02-14T07:25:00;102678.25;;;0.66;54.09
68822;BME280;55834;50.870;4.606;2023-02-14T07:27:26;102677.13;;;0.79;54.69
68822;BME280;55834;50.870;4.606;2023-02-14T07:29:51;102669.97;;;0.74;53.30
68822;BME280;55834;50.870;4.606;2023-02-14T07:32:17;102673.69;;;0.80;54.24
68822;BME280;55834;50.870;4.606;2023-02-14T07:34:42;102667.28;;;0.93;54.14
68822;BME280;55834;50.870;4.606;2023-02-14T07:37:07;102671.88;;;0.99;53.09
68822;BME280;55834;50.870;4.606;2023-02-14T07:39:33;102671.50;;;1.10;53.55
68822;BME280;55834;50.870;4.606;2023-02-14T07:41:58;102665.09;;;1.23;54.01
68822;BME280;55834;50.870;4.606;2023-02-14T07:44:23;102666.47;;;1.36;53.42
68822;BME280;55834;50.870;4.606;2023-02-14T07:46:49;102666.91;;;1.47;53.12
68822;BME280;55834;50.870;4.606;2023-02-14T07:49:14;102671.69;;;1.57;53.43
68822;BME280;55834;50.870;4.606;2023-02-14T07:51:39;102665.97;;;1.67;53.04
68822;BME280;55834;50.870;4.606;2023-02-14T07:54:05;102669.06;;;1.79;53.16
68822;BME280;55834;50.870;4.606;2023-02-14T07:56:31;102662.50;;;1.89;52.97
68822;BME280;55834;50.870;4.606;2023-02-14T07:58:56;102665.47;;;1.98;53.74
68822;BME280;55834;50.870;4.606;2023-02-14T08:01:22;102667.56;;;2.09;53.05
68822;BME280;55834;50.870;4.606;2023-02-14T08:03:47;102671.53;;;2.21;53.41
68822;BME280;55834;50.870;4.606;2023-02-14T08:06:17;102671.41;;;2.18;52.48
68822;BME280;55834;50.870;4.606;2023-02-14T08:08:43;102668.19;;;2.25;54.22
68822;BME280;55834;50.870;4.606;2023-02-14T08:11:09;102671.13;;;2.35;54.15
68822;BME280;55834;50.870;4.606;2023-02-14T08:13:34;102669.22;;;2.53;54.35
68822;BME280;55834;50.870;4.606;2023-02-14T08:16:00;102671.50;;;2.69;53.82
68822;BME280;55834;50.870;4.606;2023-02-14T08:20:58;102663.69;;;2.95;53.26
68822;BME280;55834;50.870;4.606;2023-02-14T08:23:24;102665.81;;;3.07;52.91
68822;BME280;55834;50.870;4.606;2023-02-14T08:25:50;102667.84;;;3.15;53.15
68822;BME280;55834;50.870;4.606;2023-02-14T08:28:16;102667.38;;;3.26;52.69
68822;BME280;55834;50.870;4.606;2023-02-14T08:30:42;102668.50;;;3.34;52.46
68822;BME280;55834;50.870;4.606;2023-02-14T08:33:08;102664.47;;;3.44;52.82
68822;BME280;55834;50.870;4.606;2023-02-14T08:35:34;102661.22;;;3.51;52.75
68822;BME280;55834;50.870;4.606;2023-02-14T08:38:00;102659.88;;;3.63;53.52
68822;BME280;55834;50.870;4.606;2023-02-14T08:40:26;102661.09;;;3.75;53.31
68822;BME280;55834;50.870;4.606;2023-02-14T08:42:52;102661.38;;;3.84;53.18
68822;BME280;55834;50.870;4.606;2023-02-14T08:45:17;102654.66;;;3.92;52.98
68822;BME280;55834;50.870;4.606;2023-02-14T08:47:43;102659.97;;;3.95;52.57
68822;BME280;55834;50.870;4.606;2023-02-14T08:50:11;102662.69;;;4.00;53.00
68822;BME280;55834;50.870;4.606;2023-02-14T08:52:41;102662.91;;;4.06;53.73
68822;BME280;55834;50.870;4.606;2023-02-14T08:55:08;102663.72;;;4.05;53.16
68822;BME280;55834;50.870;4.606;2023-02-14T08:57:34;102664.50;;;4.01;53.50
68822;BME280;55834;50.870;4.606;2023-02-14T08:59:59;102662.91;;;4.06;55.43
68822;BME280;55834;50.870;4.606;2023-02-14T09:02:24;102662.53;;;4.24;54.66
68822;BME280;55834;50.870;4.606;2023-02-14T09:04:50;102660.34;;;4.39;54.46
68822;BME280;55834;50.870;4.606;2023-02-14T09:07:15;102658.00;;;4.48;54.01
68822;BME280;55834;50.870;4.606;2023-02-14T09:09:40;102659.16;;;4.60;53.84
68822;BME280;55834;50.870;4.606;2023-02-14T09:12:07;102655.19;;;4.74;53.95
68822;BME280;55834;50.870;4.606;2023-02-14T09:14:37;102654.63;;;4.86;53.97
68822;BME280;55834;50.870;4.606;2023-02-14T09:17:03;102653.25;;;5.00;54.04
68822;BME280;55834;50.870;4.606;2023-02-14T09:19:31;102649.16;;;5.10;53.85
68822;BME280;55834;50.870;4.606;2023-02-14T09:21:57;102646.66;;;5.14;53.95
68822;BME280;55834;50.870;4.606;2023-02-14T09:24:22;102646.88;;;5.24;54.15
68822;BME280;55834;50.870;4.606;2023-02-14T09:26:47;102647.88;;;5.27;54.62
68822;BME280;55834;50.870;4.606;2023-02-14T09:29:13;102652.72;;;5.12;54.87
68822;BME280;55834;50.870;4.606;2023-02-14T09:31:40;102648.75;;;5.28;55.10
68822;BME280;55834;50.870;4.606;2023-02-14T09:34:09;102650.84;;;5.42;54.97
68822;BME280;55834;50.870;4.606;2023-02-14T09:36:34;102647.56;;;5.51;54.15
68822;BME280;55834;50.870;4.606;2023-02-14T09:38:59;102644.13;;;5.55;54.16
68822;BME280;55834;50.870;4.606;2023-02-14T09:44:02;102638.47;;;5.76;54.63
68822;BME280;55834;50.870;4.606;2023-02-14T09:46:40;102635.34;;;5.91;54.09
68822;BME280;55834;50.870;4.606;2023-02-14T09:49:12;102640.94;;;5.69;54.05
68822;BME280;55834;50.870;4.606;2023-02-14T09:51:44;102634.72;;;5.63;54.73
68822;BME280;55834;50.870;4.606;2023-02-14T09:54:15;102637.78;;;5.83;54.34
68822;BME280;55834;50.870;4.606;2023-02-14T09:57:20;102635.41;;;5.96;54.94
68822;BME280;55834;50.870;4.606;2023-02-14T10:00:32;102642.91;;;5.77;55.85
68822;BME280;55834;50.870;4.606;2023-02-14T10:11:28;102641.31;;;6.26;54.23
68822;BME280;55834;50.870;4.606;2023-02-14T10:16:54;102633.75;;;6.43;53.40
68822;BME280;55834;50.870;4.606;2023-02-14T10:19:25;102640.31;;;6.65;53.70
68822;BME280;55834;50.870;4.606;2023-02-14T10:21:56;102632.75;;;6.82;53.60
68822;BME280;55834;50.870;4.606;2023-02-14T10:24:42;102634.78;;;7.00;53.38
68822;BME280;55834;50.870;4.606;2023-02-14T10:27:45;102628.53;;;6.92;53.10
68822;BME280;55834;50.870;4.606;2023-02-14T10:30:18;102625.31;;;7.08;52.61
68822;BME280;55834;50.870;4.606;2023-02-14T10:47:19;102627.16;;;7.73;50.85
68822;BME280;55834;50.870;4.606;2023-02-14T10:50:12;102623.06;;;7.95;51.21
68822;BME280;55834;50.870;4.606;2023-02-14T10:56:02;102620.63;;;8.10;50.33
68822;BME280;55834;50.870;4.606;2023-02-14T10:58:33;102616.38;;;8.22;50.84
68822;BME280;55834;50.870;4.606;2023-02-14T11:01:16;102616.53;;;8.35;50.42
68822;BME280;55834;50.870;4.606;2023-02-14T11:03:55;102607.78;;;8.38;49.85
68822;BME280;55834;50.870;4.606;2023-02-14T11:06:27;102610.09;;;8.09;49.95
68822;BME280;55834;50.870;4.606;2023-02-14T11:08:53;102611.31;;;8.39;51.08
68822;BME280;55834;50.870;4.606;2023-02-14T11:11:23;102600.97;;;8.58;50.16
68822;BME280;55834;50.870;4.606;2023-02-14T11:13:51;102592.34;;;8.73;49.38
68822;BME280;55834;50.870;4.606;2023-02-14T11:16:37;102581.69;;;8.59;48.82
68822;BME280;55834;50.870;4.606;2023-02-14T11:19:19;102576.22;;;8.38;50.33
68822;BME280;55834;50.870;4.606;2023-02-14T11:21:46;102572.81;;;8.48;49.30
68822;BME280;55834;50.870;4.606;2023-02-14T11:24:24;102572.72;;;8.38;49.82
68822;BME280;55834;50.870;4.606;2023-02-14T11:26:50;102568.63;;;8.70;49.26
68822;BME280;55834;50.870;4.606;2023-02-14T11:29:25;102560.94;;;8.98;48.72
68822;BME280;55834;50.870;4.606;2023-02-14T11:31:51;102560.06;;;8.99;48.50
68822;BME280;55834;50.870;4.606;2023-02-14T11:34:36;102558.22;;;8.87;48.81
68822;BME280;55834;50.870;4.606;2023-02-14T11:39:48;102548.84;;;9.31;47.62
68822;BME280;55834;50.870;4.606;2023-02-14T11:42:32;102543.69;;;9.44;47.69
68822;BME280;55834;50.870;4.606;2023-02-14T11:44:57;102542.72;;;9.32;46.45
68822;BME280;55834;50.870;4.606;2023-02-14T11:47:34;102538.41;;;9.38;47.11
68822;BME280;55834;50.870;4.606;2023-02-14T11:50:20;102536.69;;;9.54;46.77
68822;BME280;55834;50.870;4.606;2023-02-14T11:52:50;102534.13;;;9.65;46.58
68822;BME280;55834;50.870;4.606;2023-02-14T11:55:34;102534.13;;;9.71;46.73
68822;BME280;55834;50.870;4.606;2023-02-14T11:58:01;102533.13;;;9.38;46.56
68822;BME280;55834;50.870;4.606;2023-02-14T12:00:28;102523.56;;;9.72;46.50
68822;BME280;55834;50.870;4.606;2023-02-14T12:02:56;102518.28;;;9.65;46.26
68822;BME280;55834;50.870;4.606;2023-02-14T12:05:48;102506.91;;;9.81;46.36
68822;BME280;55834;50.870;4.606;2023-02-14T12:08:14;102513.97;;;9.85;46.23
68822;BME280;55834;50.870;4.606;2023-02-14T12:10:40;102499.06;;;10.00;46.67
68822;BME280;55834;50.870;4.606;2023-02-14T12:21:10;102486.75;;;10.35;44.58
68822;BME280;55834;50.870;4.606;2023-02-14T12:24:01;102479.72;;;10.33;44.71
68822;BME280;55834;50.870;4.606;2023-02-14T12:31:53;102463.91;;;10.57;44.46
68822;BME280;55834;50.870;4.606;2023-02-14T12:34:20;102471.81;;;10.62;44.31
68822;BME280;55834;50.870;4.606;2023-02-14T12:45:03;102459.50;;;10.36;43.70
68822;BME280;55834;50.870;4.606;2023-02-14T12:50:52;102461.28;;;10.48;42.77
68822;BME280;55834;50.870;4.606;2023-02-14T12:53:31;102457.75;;;10.57;44.26
68822;BME280;55834;50.870;4.606;2023-02-14T12:56:02;102460.34;;;10.84;43.72
68822;BME280;55834;50.870;4.606;2023-02-14T12:58:53;102460.38;;;10.77;43.30
68822;BME280;55834;50.870;4.606;2023-02-14T13:14:51;102434.69;;;11.26;42.21
68822;BME280;55834;50.870;4.606;2023-02-14T13:22:49;102414.41;;;11.24;42.03
68822;BME280;55834;50.870;4.606;2023-02-14T13:27:47;102417.97;;;11.18;41.80
68822;BME280;55834;50.870;4.606;2023-02-14T13:30:31;102414.44;;;11.16;42.22
68822;BME280;55834;50.870;4.606;2023-02-14T13:33:05;102410.97;;;10.99;41.63
68822;BME280;55834;50.870;4.606;2023-02-14T13:35:32;102404.69;;;11.27;41.48
68822;BME280;55834;50.870;4.606;2023-02-14T13:38:01;102403.72;;;11.47;41.90
68822;BME280;55834;50.870;4.606;2023-02-14T13:40:28;102402.81;;;11.52;40.70
68822;BME280;55834;50.870;4.606;2023-02-14T13:42:59;102399.28;;;11.58;40.88
68822;BME280;55834;50.870;4.606;2023-02-14T13:50:40;102392.16;;;11.72;40.20
68822;BME280;55834;50.870;4.606;2023-02-14T13:53:39;102382.41;;;11.76;40.25
68822;BME280;55834;50.870;4.606;2023-02-14T14:01:44;102376.28;;;11.69;40.69
68822;BME280;55834;50.870;4.606;2023-02-14T14:17:34;102378.09;;;11.53;40.70
68822;BME280;55834;50.870;4.606;2023-02-14T14:22:55;102370.94;;;11.74;39.34
68822;BME280;55834;50.870;4.606;2023-02-14T14:25:37;102371.78;;;11.79;39.98
68822;BME280;55834;50.870;4.606;2023-02-14T14:28:09;102369.97;;;11.86;40.30
68822;BME280;55834;50.870;4.606;2023-02-14T14:30:36;102362.94;;;11.85;39.63
68822;BME280;55834;50.870;4.606;2023-02-14T14:33:12;102355.03;;;11.82;39.10
68822;BME280;55834;50.870;4.606;2023-02-14T14:35:38;102355.94;;;11.76;40.25
68822;BME280;55834;50.870;4.606;2023-02-14T14:38:03;102355.19;;;11.56;40.35
68822;BME280;55834;50.870;4.606;2023-02-14T14:40:36;102361.25;;;11.71;40.12
68822;BME280;55834;50.870;4.606;2023-02-14T14:43:06;102355.84;;;11.90;40.30
68822;BME280;55834;50.870;4.606;2023-02-14T14:45:34;102360.22;;;11.92;40.09
68822;BME280;55834;50.870;4.606;2023-02-14T14:48:06;102357.63;;;11.88;39.36
68822;BME280;55834;50.870;4.606;2023-02-14T14:50:34;102354.91;;;11.95;40.17
68822;BME280;55834;50.870;4.606;2023-02-14T14:53:02;102353.13;;;11.99;40.22
68822;BME280;55834;50.870;4.606;2023-02-14T14:55:32;102356.59;;;12.04;40.08
68822;BME280;55834;50.870;4.606;2023-02-14T14:58:03;102346.00;;;12.03;39.65
68822;BME280;55834;50.870;4.606;2023-02-14T15:00:30;102340.72;;;12.03;39.84
68822;BME280;55834;50.870;4.606;2023-02-14T15:03:13;102336.34;;;12.02;39.42
68822;BME280;55834;50.870;4.606;2023-02-14T15:05:45;102341.00;;;11.66;40.13
68822;BME280;55834;50.870;4.606;2023-02-14T15:11:00;102332.94;;;11.83;40.32
68822;BME280;55834;50.870;4.606;2023-02-14T15:13:48;102332.88;;;11.92;40.06
68822;BME280;55834;50.870;4.606;2023-02-14T15:16:23;102331.06;;;11.97;39.61
68822;BME280;55834;50.870;4.606;2023-02-14T15:18:55;102332.81;;;11.98;39.82
68822;BME280;55834;50.870;4.606;2023-02-14T15:21:21;102331.97;;;11.94;39.24
68822;BME280;55834;50.870;4.606;2023-02-14T15:23:47;102319.78;;;11.72;39.89
68822;BME280;55834;50.870;4.606;2023-02-14T15:26:17;102321.66;;;11.59;40.18
68822;BME280;55834;50.870;4.606;2023-02-14T15:28:53;102315.41;;;11.71;40.40
68822;BME280;55834;50.870;4.606;2023-02-14T15:31:19;102318.13;;;11.62;39.59
68822;BME280;55834;50.870;4.606;2023-02-14T15:33:44;102326.09;;;11.56;40.31
68822;BME280;55834;50.870;4.606;2023-02-14T15:36:15;102328.66;;;11.69;39.89
68822;BME280;55834;50.870;4.606;2023-02-14T15:38:41;102333.91;;;11.74;39.42
68822;BME280;55834;50.870;4.606;2023-02-14T15:41:08;102335.75;;;11.64;39.25